Hlavní strana
METAR-TAF:

METAR-TAF

Letiště :

Letiště Moskva-Šeremeťjevo

Moskva-Šeremetěvo, Rusko

zeměpisná šířka: 55-58N, zeměpisná délka: 037-25E, výška: 190 m

Aktuální stav počasí

Zpráva byla vytvořena před 17 minutami, v 07:00 UTC
Severní vítr 6 kt
Teplota -4°C
Vlhkost vzduchu 93%
Tlak 1031 hPa
Viditelnost 10 km a více
Zataženo ve výšce 500 ft

METAR: UUEE 150700Z 35003MPS 9999 OVC005 M04/M05 Q1031 R06C/510340 R06R/510345 NOSIG

Čas: 10:17 (07:17 UTC)

Předpověď počasí

Zpráva byla vytvořena před 2 hodinami a 25 minutami, v 04:52 UTC
Předpověď platná od 15 v 06 UTC do 16 v 06 UTC
Severní vítr 10 kt s nárazy do 19 kt
Viditelnost: 6000 m
Zataženo ve výšce 800 ft
Dočasný
od 15 v 06 UTC do 15 v 08 UTC
Viditelnost: 3100 m
Zataženo ve výšce 600 ft
slabé sněžení
Změna
od 15 v 08 UTC do 15 v 09 UTC
Oblačno až skoro zataženo ve výšce 1100 ft

TAF: UUEE 150452Z 1506/1606 01005G10MPS 6000 OVC008 TXM04/1506Z TNM10/1603Z TEMPO 1506/1508 3100 -SN OVC006 BECMG 1508/1509 BKN011

Stav a předpovědi počasí z více než 4 000 letišť (zprávy METAR a TAF).

Červené a žluté tečky na mapě představují dostupné meteorologické stanice.

Když kurzor umístíte na tečku, zobrazí se název stanice.

Pak kliknutím zobrazíte stav a předpověď počasí.

Chcete-li změnit mapu, kliknutím na zelené tlačítko se znaménkem +mapu přiblížíte, kliknutím na zelené tlačítko se znaménkem – mapu oddálíte a kliknutím na zelené šipky přejdete na sousední mapy.


METAR-TAF: